createdAt,value
2023-03-18T00:02:03.182Z,19.00
2023-03-18T00:04:30.436Z,19.00
2023-03-18T00:06:57.712Z,19.00
2023-03-18T00:09:24.705Z,19.00
2023-03-18T00:11:52.024Z,19.00
2023-03-18T00:14:19.349Z,19.00
2023-03-18T00:16:46.104Z,19.00
2023-03-18T00:19:13.031Z,19.00
2023-03-18T00:21:39.652Z,19.00
2023-03-18T00:24:06.517Z,19.00
2023-03-18T00:26:33.190Z,19.00
2023-03-18T00:28:59.915Z,19.00
2023-03-18T00:31:27.600Z,19.00
2023-03-18T00:33:54.393Z,18.90
2023-03-18T00:36:25.746Z,18.90
2023-03-18T00:38:57.539Z,18.90
2023-03-18T00:41:26.790Z,18.90
2023-03-18T00:43:54.103Z,18.90
2023-03-18T00:46:25.517Z,18.90
2023-03-18T00:48:54.120Z,18.90
2023-03-18T00:51:23.257Z,18.90
2023-03-18T00:53:52.564Z,18.90
2023-03-18T00:56:22.015Z,18.90
2023-03-18T00:58:50.538Z,18.90
2023-03-18T01:01:18.081Z,18.90
2023-03-18T01:03:46.067Z,18.90
2023-03-18T01:06:15.589Z,18.90
2023-03-18T01:08:42.392Z,18.90
2023-03-18T01:11:10.326Z,18.80
2023-03-18T01:13:37.931Z,18.80
2023-03-18T01:16:06.639Z,18.80
2023-03-18T01:18:34.410Z,18.80
2023-03-18T01:21:01.670Z,18.80
2023-03-18T01:23:30.087Z,18.80
2023-03-18T01:25:58.987Z,18.80
2023-03-18T01:28:27.234Z,18.80
2023-03-18T01:30:55.157Z,18.80
2023-03-18T01:33:22.430Z,18.80
2023-03-18T01:35:55.505Z,18.80
2023-03-18T01:38:23.930Z,18.80
2023-03-18T01:40:52.142Z,18.80
2023-03-18T01:43:23.934Z,18.80
2023-03-18T01:45:54.021Z,18.80
2023-03-18T01:48:26.611Z,18.80
2023-03-18T01:50:59.916Z,18.80
2023-03-18T01:53:31.150Z,18.80
2023-03-18T01:55:59.160Z,18.80
2023-03-18T01:58:34.515Z,18.80
2023-03-18T02:01:07.014Z,18.80
2023-03-18T02:03:34.900Z,18.80
2023-03-18T02:06:03.065Z,18.80
2023-03-18T02:08:30.108Z,18.80
2023-03-18T02:10:56.891Z,18.80
2023-03-18T02:13:24.750Z,18.70
2023-03-18T02:15:58.650Z,18.70
2023-03-18T02:18:38.871Z,18.70
2023-03-18T02:21:24.411Z,18.70
2023-03-18T02:24:16.004Z,18.70
2023-03-18T02:26:57.405Z,18.70
2023-03-18T02:29:26.170Z,18.70
2023-03-18T02:31:55.214Z,18.70
2023-03-18T02:34:25.340Z,18.70
2023-03-18T02:36:52.151Z,18.70
2023-03-18T02:39:18.848Z,18.70
2023-03-18T02:41:45.756Z,18.70
2023-03-18T02:44:12.750Z,18.70
2023-03-18T02:46:57.672Z,18.70
2023-03-18T02:49:26.119Z,18.70
2023-03-18T02:51:53.233Z,18.70
2023-03-18T02:54:27.583Z,18.70
2023-03-18T02:56:54.686Z,18.70
2023-03-18T02:59:23.151Z,18.70
2023-03-18T03:01:52.003Z,18.70
2023-03-18T03:04:20.140Z,18.70
2023-03-18T03:06:47.107Z,18.70
2023-03-18T03:09:16.313Z,18.70
2023-03-18T03:11:45.784Z,18.70
2023-03-18T03:14:14.096Z,18.70
2023-03-18T03:16:40.942Z,18.70
2023-03-18T03:19:08.092Z,18.70
2023-03-18T03:21:35.881Z,18.70
2023-03-18T03:24:06.530Z,18.70
2023-03-18T03:26:34.270Z,18.70
2023-03-18T03:29:01.006Z,18.70
2023-03-18T03:31:28.233Z,18.70
2023-03-18T03:33:54.889Z,18.60
2023-03-18T03:36:22.113Z,18.70
2023-03-18T03:38:48.769Z,18.60
2023-03-18T03:41:15.805Z,18.60
2023-03-18T03:43:43.427Z,18.60
2023-03-18T03:46:10.869Z,18.60
2023-03-18T03:48:39.417Z,18.60
2023-03-18T03:51:06.515Z,18.60
2023-03-18T03:53:33.897Z,18.60
2023-03-18T03:56:00.905Z,18.60
2023-03-18T03:58:27.970Z,18.60
2023-03-18T04:00:54.632Z,18.60
2023-03-18T04:03:21.326Z,18.60
2023-03-18T04:05:49.233Z,18.60
2023-03-18T04:08:16.031Z,18.60
2023-03-18T04:10:43.221Z,18.60
2023-03-18T04:13:10.205Z,18.60
2023-03-18T04:15:37.598Z,18.60
2023-03-18T04:18:06.944Z,18.60
2023-03-18T04:20:38.629Z,18.60
2023-03-18T04:23:05.883Z,18.50
2023-03-18T04:25:33.160Z,18.50
2023-03-18T04:27:59.866Z,18.60
2023-03-18T04:30:27.366Z,18.50
2023-03-18T04:32:54.915Z,18.50
2023-03-18T04:35:23.313Z,18.50
2023-03-18T04:37:50.322Z,18.60
2023-03-18T04:40:17.641Z,18.50
2023-03-18T04:42:47.384Z,18.50
2023-03-18T04:45:15.595Z,18.50
2023-03-18T04:47:43.374Z,18.50
2023-03-18T04:50:12.231Z,18.50
2023-03-18T04:52:42.634Z,18.50
2023-03-18T04:55:10.566Z,18.50
2023-03-18T04:57:38.429Z,18.50
2023-03-18T05:00:09.664Z,18.50
2023-03-18T05:02:38.343Z,18.50
2023-03-18T05:05:05.638Z,18.50
2023-03-18T05:07:32.270Z,18.50
2023-03-18T05:09:58.943Z,18.50
2023-03-18T05:12:25.727Z,18.50
2023-03-18T05:14:52.520Z,18.50
2023-03-18T05:17:19.857Z,18.50
2023-03-18T05:19:47.970Z,18.50
2023-03-18T05:22:17.450Z,18.50
2023-03-18T05:24:45.985Z,18.50
2023-03-18T05:27:18.247Z,18.50
2023-03-18T05:29:50.645Z,18.50
2023-03-18T05:32:17.274Z,18.50
2023-03-18T05:34:44.070Z,18.50
2023-03-18T05:37:14.205Z,18.50
2023-03-18T05:39:45.501Z,18.50
2023-03-18T05:42:12.443Z,18.50
2023-03-18T05:44:40.266Z,18.40
2023-03-18T05:47:07.294Z,18.40
2023-03-18T05:49:34.221Z,18.40
2023-03-18T05:52:01.318Z,18.50
2023-03-18T05:54:28.712Z,18.40
2023-03-18T05:56:55.478Z,18.40
2023-03-18T05:59:23.749Z,18.40
2023-03-18T06:01:50.529Z,18.40
2023-03-18T06:04:19.082Z,18.40
2023-03-18T06:06:46.494Z,18.40
2023-03-18T06:09:14.029Z,18.40
2023-03-18T06:11:41.022Z,18.40
2023-03-18T06:14:08.339Z,18.40
2023-03-18T06:16:36.042Z,18.40
2023-03-18T06:19:03.976Z,18.40
2023-03-18T06:21:32.921Z,18.40
2023-03-18T06:24:00.278Z,18.40
2023-03-18T06:26:27.571Z,18.40
2023-03-18T06:28:54.260Z,18.40
2023-03-18T06:31:22.306Z,18.40
2023-03-18T06:33:49.088Z,18.40
2023-03-18T06:36:17.643Z,18.40
2023-03-18T06:38:44.996Z,18.40
2023-03-18T06:41:12.154Z,18.40
2023-03-18T06:43:39.086Z,18.40
2023-03-18T06:46:05.958Z,18.40
2023-03-18T06:48:32.907Z,18.40
2023-03-18T06:50:59.574Z,18.40
2023-03-18T06:53:27.432Z,18.50
2023-03-18T06:55:54.103Z,18.50
2023-03-18T06:58:20.726Z,18.50
2023-03-18T07:00:47.661Z,18.50
2023-03-18T07:03:15.756Z,18.50
2023-03-18T07:05:42.587Z,18.60
2023-03-18T07:08:10.054Z,18.50
2023-03-18T07:10:36.667Z,18.50
2023-03-18T07:13:03.291Z,18.60
2023-03-18T07:15:30.376Z,18.60
2023-03-18T07:17:57.092Z,18.60
2023-03-18T07:20:23.950Z,18.50
2023-03-18T07:22:51.451Z,19.10
2023-03-18T07:25:18.248Z,18.60
2023-03-18T07:27:45.486Z,18.60
2023-03-18T07:30:13.600Z,18.60
2023-03-18T07:32:40.240Z,18.60
2023-03-18T07:35:07.654Z,18.60
2023-03-18T07:37:35.852Z,18.70
2023-03-18T07:40:03.833Z,18.70
2023-03-18T07:42:30.456Z,18.70
2023-03-18T07:44:57.924Z,18.70
2023-03-18T07:47:24.930Z,18.70
2023-03-18T07:49:54.560Z,18.70
2023-03-18T07:52:21.196Z,18.70
2023-03-18T07:54:49.020Z,18.70
2023-03-18T07:57:15.791Z,18.80
2023-03-18T07:59:42.565Z,18.80
2023-03-18T08:02:13.810Z,18.80
2023-03-18T08:04:42.640Z,18.90
2023-03-18T08:07:10.014Z,18.90
2023-03-18T08:09:36.654Z,19.00
2023-03-18T08:12:03.374Z,19.00
2023-03-18T08:14:30.345Z,19.00
2023-03-18T08:16:57.214Z,19.10
2023-03-18T08:19:23.906Z,19.10
2023-03-18T08:21:50.529Z,19.20
2023-03-18T08:24:17.246Z,19.20
2023-03-18T08:26:43.848Z,19.20
2023-03-18T08:29:10.502Z,19.20
2023-03-18T08:31:37.142Z,19.20
2023-03-18T08:34:04.105Z,19.30
2023-03-18T08:36:30.965Z,19.30
2023-03-18T08:38:57.644Z,19.30
2023-03-18T08:41:25.671Z,19.30
2023-03-18T08:43:53.090Z,19.40
2023-03-18T08:46:20.258Z,19.30
2023-03-18T08:48:49.002Z,19.40
2023-03-18T08:51:16.709Z,19.30
2023-03-18T08:53:43.627Z,19.30
2023-03-18T08:56:10.256Z,19.30
2023-03-18T08:58:36.844Z,19.30
2023-03-18T09:01:05.211Z,19.30
2023-03-18T09:03:32.304Z,19.30
2023-03-18T09:05:58.985Z,19.40
2023-03-18T09:08:25.737Z,19.40
2023-03-18T09:10:53.677Z,19.40
2023-03-18T09:13:21.641Z,19.40
2023-03-18T09:15:48.608Z,19.40
2023-03-18T09:18:18.185Z,19.40
2023-03-18T09:20:45.728Z,19.40
2023-03-18T09:23:13.847Z,19.40
2023-03-18T09:25:42.723Z,19.40
2023-03-18T09:28:09.526Z,19.50
2023-03-18T09:30:37.850Z,19.50
2023-03-18T09:33:06.833Z,19.50
2023-03-18T09:35:35.275Z,19.50
2023-03-18T09:38:02.572Z,19.50
2023-03-18T09:40:32.605Z,19.50
2023-03-18T09:43:05.620Z,19.60
2023-03-18T09:45:48.260Z,19.60
2023-03-18T09:49:00.517Z,19.50
2023-03-18T09:51:41.792Z,19.50
2023-03-18T09:54:10.711Z,19.60
2023-03-18T09:56:39.321Z,19.60
2023-03-18T09:59:43.311Z,19.60
2023-03-18T10:02:35.623Z,19.60
2023-03-18T10:05:10.642Z,19.60
2023-03-18T10:07:42.802Z,19.60
2023-03-18T10:10:19.734Z,19.60
2023-03-18T10:12:52.831Z,19.60
2023-03-18T10:15:45.555Z,19.60
2023-03-18T10:18:26.573Z,19.60
2023-03-18T10:20:59.380Z,19.60
2023-03-18T10:23:56.966Z,19.70
2023-03-18T10:26:44.641Z,19.70
2023-03-18T10:29:17.138Z,19.70
2023-03-18T10:32:05.855Z,19.70
2023-03-18T10:34:49.576Z,19.70
2023-03-18T10:37:16.142Z,19.80
2023-03-18T10:39:45.621Z,19.80
2023-03-18T10:42:20.587Z,19.80
2023-03-18T10:44:47.869Z,19.80
2023-03-18T10:47:46.015Z,19.80
2023-03-18T10:50:30.849Z,19.80
2023-03-18T10:53:13.430Z,19.80
2023-03-18T10:55:57.431Z,19.80
2023-03-18T10:58:24.301Z,19.80
2023-03-18T11:00:51.422Z,19.80
2023-03-18T11:03:29.281Z,19.70
2023-03-18T11:05:58.937Z,19.80
2023-03-18T11:08:37.819Z,19.70
2023-03-18T11:11:15.142Z,19.70
2023-03-18T11:13:52.712Z,19.80
2023-03-18T11:16:30.529Z,19.70
2023-03-18T11:19:06.239Z,19.70
2023-03-18T11:21:34.445Z,19.70
2023-03-18T11:24:10.776Z,19.70
2023-03-18T11:26:55.846Z,19.70
2023-03-18T11:29:35.535Z,19.70
2023-03-18T11:32:02.442Z,19.70
2023-03-18T11:34:31.805Z,19.70
2023-03-18T11:37:04.364Z,19.70
2023-03-18T11:39:37.361Z,19.70
2023-03-18T11:42:21.978Z,19.80
2023-03-18T11:44:56.129Z,19.80
2023-03-18T11:47:27.962Z,19.80
2023-03-18T11:49:54.603Z,19.80
2023-03-18T11:52:43.786Z,19.70
2023-03-18T11:55:50.645Z,19.70
2023-03-18T11:58:35.349Z,19.80
2023-03-18T12:01:40.802Z,19.80
2023-03-18T12:04:13.785Z,19.80
2023-03-18T12:07:18.718Z,19.80
2023-03-18T12:10:10.431Z,19.80
2023-03-18T12:12:54.850Z,19.80
2023-03-18T12:15:53.128Z,19.80
2023-03-18T12:18:48.582Z,19.80
2023-03-18T12:21:30.398Z,19.90
2023-03-18T12:24:07.682Z,19.90
2023-03-18T12:26:50.786Z,19.90
2023-03-18T12:29:40.988Z,19.90
2023-03-18T12:32:28.461Z,19.90
2023-03-18T12:35:02.435Z,19.20
2023-03-18T12:37:37.887Z,20.00
2023-03-18T12:40:25.437Z,20.00
2023-03-18T12:43:17.257Z,20.00
2023-03-18T12:45:48.331Z,20.00
2023-03-18T12:48:49.411Z,20.00
2023-03-18T12:51:22.695Z,20.00
2023-03-18T12:54:01.811Z,20.00
2023-03-18T12:56:30.607Z,20.00
2023-03-18T12:59:06.643Z,20.00
2023-03-18T13:01:36.068Z,20.00
2023-03-18T13:04:07.062Z,20.00
2023-03-18T13:06:45.751Z,20.00
2023-03-18T13:09:34.565Z,19.90
2023-03-18T13:12:12.548Z,20.00
2023-03-18T13:15:02.720Z,20.00
2023-03-18T13:17:31.595Z,20.00
2023-03-18T13:20:01.274Z,20.00
2023-03-18T13:23:08.899Z,20.00
2023-03-18T13:25:56.869Z,19.90
2023-03-18T13:28:41.601Z,19.90
2023-03-18T13:31:27.117Z,19.90
2023-03-18T13:34:31.461Z,19.90
2023-03-18T13:37:39.203Z,20.00
2023-03-18T13:40:42.833Z,20.00
2023-03-18T13:43:16.077Z,20.00
2023-03-18T13:45:46.688Z,20.00
2023-03-18T13:48:19.600Z,20.00
2023-03-18T13:50:50.350Z,20.00
2023-03-18T13:53:40.327Z,20.00
2023-03-18T13:56:47.252Z,20.00
2023-03-18T13:59:35.175Z,20.00
2023-03-18T14:02:38.748Z,20.00
2023-03-18T14:05:36.886Z,20.00
2023-03-18T14:08:25.379Z,20.00
2023-03-18T14:11:19.384Z,20.00
2023-03-18T14:13:54.103Z,20.00
2023-03-18T14:16:29.765Z,20.00
2023-03-18T14:19:00.052Z,20.00
2023-03-18T14:21:32.630Z,20.10
2023-03-18T14:24:17.512Z,20.10
2023-03-18T14:27:05.322Z,20.00
2023-03-18T14:29:47.180Z,20.00
2023-03-18T14:32:22.628Z,20.00
2023-03-18T14:35:24.274Z,20.10
2023-03-18T14:38:06.358Z,20.10
2023-03-18T14:40:41.451Z,20.10
2023-03-18T14:43:25.564Z,20.10
2023-03-18T14:45:55.929Z,20.00
2023-03-18T14:48:33.850Z,20.10
2023-03-18T14:51:29.205Z,20.00
2023-03-18T14:54:14.345Z,20.10
2023-03-18T14:56:41.957Z,20.10
2023-03-18T14:59:15.149Z,20.00
2023-03-18T15:01:46.582Z,20.00
2023-03-18T15:04:24.763Z,20.00
2023-03-18T15:06:53.186Z,20.00
2023-03-18T15:09:27.752Z,20.00
2023-03-18T15:11:54.710Z,20.00
2023-03-18T15:14:26.934Z,19.90
2023-03-18T15:16:59.616Z,19.90
2023-03-18T15:19:31.151Z,19.00
2023-03-18T15:22:01.529Z,20.00
2023-03-18T15:24:28.295Z,19.90
2023-03-18T15:27:14.618Z,19.90
2023-03-18T15:30:02.115Z,20.00
2023-03-18T15:32:42.500Z,19.90
2023-03-18T15:35:24.223Z,19.90
2023-03-18T15:38:09.167Z,19.90
2023-03-18T15:40:48.901Z,19.90
2023-03-18T15:43:42.767Z,19.90
2023-03-18T15:46:25.785Z,20.00
2023-03-18T15:48:55.673Z,19.90
2023-03-18T15:51:26.863Z,19.90
2023-03-18T15:54:13.597Z,19.90
2023-03-18T15:56:45.390Z,19.90
2023-03-18T15:59:27.266Z,19.90
2023-03-18T16:01:58.289Z,19.90
2023-03-18T16:04:29.200Z,19.90
2023-03-18T16:06:55.840Z,19.90
2023-03-18T16:09:24.701Z,19.90
2023-03-18T16:11:55.669Z,19.90
2023-03-18T16:14:25.935Z,19.90
2023-03-18T16:16:52.830Z,19.80
2023-03-18T16:19:27.833Z,19.80
2023-03-18T16:21:56.358Z,19.80
2023-03-18T16:24:23.968Z,19.80
2023-03-18T16:26:52.890Z,19.80
2023-03-18T16:29:30.745Z,19.80
2023-03-18T16:31:57.811Z,19.80
2023-03-18T16:34:24.942Z,19.80
2023-03-18T16:36:53.400Z,19.80
2023-03-18T16:39:35.782Z,20.60
2023-03-18T16:42:04.180Z,19.80
2023-03-18T16:44:38.001Z,19.70
2023-03-18T16:47:04.896Z,19.80
2023-03-18T16:49:34.076Z,19.80
2023-03-18T16:52:03.803Z,19.80
2023-03-18T16:54:33.054Z,19.80
2023-03-18T16:57:02.758Z,19.70
2023-03-18T16:59:32.017Z,19.70
2023-03-18T17:01:58.621Z,19.70
2023-03-18T17:04:31.118Z,19.80
2023-03-18T17:06:59.674Z,19.70
2023-03-18T17:09:27.267Z,19.70
2023-03-18T17:11:57.537Z,19.70
2023-03-18T17:14:48.529Z,19.70
2023-03-18T17:17:29.318Z,19.70
2023-03-18T17:19:56.874Z,19.70
2023-03-18T17:22:25.609Z,19.80
2023-03-18T17:24:52.306Z,19.70
2023-03-18T17:27:22.620Z,19.80
2023-03-18T17:29:49.498Z,19.80
2023-03-18T17:32:19.252Z,19.80
2023-03-18T17:34:48.108Z,19.90
2023-03-18T17:37:14.707Z,19.80
2023-03-18T17:39:41.351Z,19.90
2023-03-18T17:42:27.930Z,19.90
2023-03-18T17:44:54.769Z,19.80
2023-03-18T17:47:21.392Z,19.80
2023-03-18T17:49:47.976Z,19.80
2023-03-18T17:52:21.842Z,19.80
2023-03-18T17:54:48.503Z,19.80
2023-03-18T17:57:16.208Z,19.80
2023-03-18T17:59:43.315Z,19.70
2023-03-18T18:02:17.847Z,19.80
2023-03-18T18:04:45.650Z,19.80
2023-03-18T18:07:18.086Z,19.70
2023-03-18T18:09:45.062Z,19.70
2023-03-18T18:12:19.779Z,19.70
2023-03-18T18:14:46.474Z,19.70
2023-03-18T18:17:15.089Z,19.70
2023-03-18T18:19:42.697Z,19.70
2023-03-18T18:22:20.743Z,19.70
2023-03-18T18:24:48.475Z,19.70
2023-03-18T18:27:15.978Z,19.70
2023-03-18T18:29:45.885Z,19.70
2023-03-18T18:32:13.154Z,19.70
2023-03-18T18:34:39.825Z,19.70
2023-03-18T18:37:08.079Z,19.60
2023-03-18T18:39:34.732Z,19.70
2023-03-18T18:42:01.420Z,19.60
2023-03-18T18:44:28.338Z,19.70
2023-03-18T18:46:54.986Z,19.70
2023-03-18T18:49:24.062Z,19.60
2023-03-18T18:51:55.714Z,19.60
2023-03-18T18:54:23.900Z,19.60
2023-03-18T18:56:50.977Z,19.60
2023-03-18T18:59:22.586Z,19.60
2023-03-18T19:01:52.810Z,19.60
2023-03-18T19:04:21.716Z,19.60
2023-03-18T19:06:50.710Z,19.60
2023-03-18T19:09:19.758Z,19.60
2023-03-18T19:11:47.347Z,19.70
2023-03-18T19:14:20.144Z,19.60
2023-03-18T19:16:48.107Z,19.60
2023-03-18T19:19:18.086Z,19.60
2023-03-18T19:21:44.811Z,19.60
2023-03-18T19:24:37.974Z,19.60
2023-03-18T19:27:10.415Z,19.60
2023-03-18T19:29:37.205Z,19.60
2023-03-18T19:32:04.349Z,19.60
2023-03-18T19:34:32.159Z,19.60
2023-03-18T19:36:59.771Z,19.60
2023-03-18T19:39:28.054Z,19.50
2023-03-18T19:41:54.700Z,19.50
2023-03-18T19:44:24.851Z,19.50
2023-03-18T19:46:56.200Z,19.60
2023-03-18T19:49:29.784Z,19.50
2023-03-18T19:51:56.986Z,19.60
2023-03-18T19:54:29.921Z,19.50
2023-03-18T19:57:00.245Z,19.60
2023-03-18T19:59:38.184Z,19.60
2023-03-18T20:02:16.672Z,19.50
2023-03-18T20:04:43.536Z,19.50
2023-03-18T20:07:10.133Z,19.50
2023-03-18T20:09:37.191Z,19.50
2023-03-18T20:12:05.713Z,19.50
2023-03-18T20:14:37.999Z,19.50
2023-03-18T20:17:23.422Z,19.50
2023-03-18T20:19:50.433Z,19.50
2023-03-18T20:22:26.182Z,19.50
2023-03-18T20:24:53.287Z,19.50
2023-03-18T20:27:20.281Z,19.50
2023-03-18T20:29:47.387Z,19.50
2023-03-18T20:32:14.020Z,19.50
2023-03-18T20:34:41.530Z,19.50
2023-03-18T20:37:21.518Z,19.40
2023-03-18T20:39:49.682Z,19.50
2023-03-18T20:42:17.350Z,19.50
2023-03-18T20:44:46.010Z,19.50
2023-03-18T20:47:13.452Z,19.40
2023-03-18T20:49:41.190Z,19.40
2023-03-18T20:52:37.093Z,19.40
2023-03-18T20:55:25.768Z,19.40
2023-03-18T20:57:53.623Z,19.40
2023-03-18T21:00:23.873Z,19.40
2023-03-18T21:02:52.847Z,19.40
2023-03-18T21:05:20.327Z,19.40
2023-03-18T21:07:47.753Z,19.40
2023-03-18T21:10:20.180Z,19.40
2023-03-18T21:12:47.783Z,19.40
2023-03-18T21:15:16.962Z,19.40
2023-03-18T21:17:45.454Z,19.40
2023-03-18T21:20:22.878Z,19.40
2023-03-18T21:22:50.670Z,19.40
2023-03-18T21:25:22.866Z,19.40
2023-03-18T21:27:50.546Z,19.40
2023-03-18T21:30:19.062Z,19.40
2023-03-18T21:32:46.177Z,19.40
2023-03-18T21:35:24.492Z,19.40
2023-03-18T21:37:51.961Z,19.40
2023-03-18T21:40:21.631Z,19.40
2023-03-18T21:42:49.651Z,19.40
2023-03-18T21:45:20.969Z,19.40
2023-03-18T21:47:47.855Z,19.50
2023-03-18T21:50:23.784Z,19.50
2023-03-18T21:52:51.880Z,19.50
2023-03-18T21:55:19.041Z,19.50
2023-03-18T21:57:48.291Z,19.50
2023-03-18T22:00:20.082Z,19.50
2023-03-18T22:02:47.781Z,19.50
2023-03-18T22:05:18.040Z,19.40
2023-03-18T22:07:44.974Z,19.40
2023-03-18T22:10:17.421Z,19.40
2023-03-18T22:12:44.129Z,19.40
2023-03-18T22:15:38.768Z,19.40
2023-03-18T22:18:07.066Z,19.40
2023-03-18T22:20:35.220Z,19.40
2023-03-18T22:23:11.407Z,19.40
2023-03-18T22:25:38.875Z,19.40
2023-03-18T22:28:05.814Z,19.40
2023-03-18T22:30:34.435Z,19.40
2023-03-18T22:33:03.463Z,19.40
2023-03-18T22:35:30.759Z,19.40
2023-03-18T22:37:57.931Z,19.40
2023-03-18T22:40:29.927Z,19.40
2023-03-18T22:42:59.518Z,19.40
2023-03-18T22:45:31.875Z,19.40
2023-03-18T22:48:04.284Z,19.40
2023-03-18T22:50:33.661Z,19.40
2023-03-18T22:53:01.389Z,19.30
2023-03-18T22:55:34.923Z,19.40
2023-03-18T22:58:01.734Z,19.30
2023-03-18T23:00:37.269Z,19.30
2023-03-18T23:03:17.528Z,19.40
2023-03-18T23:05:46.830Z,19.30
2023-03-18T23:08:13.713Z,19.30
2023-03-18T23:10:41.825Z,19.30
2023-03-18T23:13:30.168Z,19.30
2023-03-18T23:15:58.234Z,19.30
2023-03-18T23:18:25.522Z,19.30
2023-03-18T23:20:52.370Z,19.30
2023-03-18T23:23:20.831Z,19.30
2023-03-18T23:25:48.991Z,19.30
2023-03-18T23:28:16.851Z,19.30
2023-03-18T23:30:47.434Z,19.30
2023-03-18T23:33:14.260Z,19.30
2023-03-18T23:35:41.636Z,19.30
2023-03-18T23:38:08.326Z,19.30
2023-03-18T23:40:35.084Z,19.30
2023-03-18T23:43:02.090Z,19.30
2023-03-18T23:45:29.131Z,19.30
2023-03-18T23:47:56.378Z,19.30
2023-03-18T23:50:23.234Z,19.30
2023-03-18T23:52:50.267Z,19.30
2023-03-18T23:55:45.401Z,19.30
2023-03-18T23:58:04.065Z,19.30
